createdAt,value
2019-04-20T00:00:09.082Z,101544.93
2019-04-20T00:02:35.767Z,101549.63
2019-04-20T00:05:03.785Z,101556.31
2019-04-20T00:07:35.628Z,101548.40
2019-04-20T00:10:08.765Z,101566.28
2019-04-20T00:12:46.064Z,101559.88
2019-04-20T00:15:00.608Z,101562.78
2019-04-20T00:17:28.791Z,101565.18
2019-04-20T00:19:57.830Z,101562.25
2019-04-20T00:22:40.913Z,101561.02
2019-04-20T00:25:15.497Z,101556.92
2019-04-20T00:28:17.648Z,101557.03
2019-04-20T00:30:48.161Z,101548.86
2019-04-20T00:33:07.313Z,101559.16
2019-04-20T00:35:27.158Z,101556.91
2019-04-20T00:37:55.009Z,101554.03
2019-04-20T00:40:23.675Z,101553.43
2019-04-20T00:42:54.896Z,101554.67
2019-04-20T00:45:25.862Z,101554.67
2019-04-20T00:47:59.586Z,101554.30
2019-04-20T00:50:35.827Z,101562.16
2019-04-20T00:53:05.791Z,101564.57
2019-04-20T00:55:19.078Z,101568.16
2019-04-20T00:57:54.676Z,101558.29
2019-04-20T01:00:31.588Z,101565.50
2019-04-20T01:03:00.987Z,101558.83
2019-04-20T01:05:39.396Z,101556.36
2019-04-20T01:08:04.527Z,101554.25
2019-04-20T01:10:37.090Z,101558.29
2019-04-20T01:13:06.747Z,101551.67
2019-04-20T01:15:38.652Z,101552.91
2019-04-20T01:17:58.340Z,101556.77
2019-04-20T01:20:27.821Z,101551.94
2019-04-20T01:23:03.294Z,101560.41
2019-04-20T01:25:30.850Z,101560.39
2019-04-20T01:28:09.085Z,101556.20
2019-04-20T01:30:30.162Z,101551.06
2019-04-20T01:33:08.898Z,101559.28
2019-04-20T01:35:39.522Z,101556.60
2019-04-20T01:38:12.411Z,101554.60
2019-04-20T01:40:21.230Z,101563.40
2019-04-20T01:42:49.086Z,101560.50
2019-04-20T01:45:23.561Z,101565.44
2019-04-20T01:47:50.824Z,101561.02
2019-04-20T01:50:21.255Z,101569.72
2019-04-20T01:52:56.923Z,101558.81
2019-04-20T01:55:35.827Z,101561.75
2019-04-20T01:58:05.067Z,101563.27
2019-04-20T02:00:34.929Z,101567.64
2019-04-20T02:03:05.545Z,101557.84
2019-04-20T02:05:35.877Z,101561.83
2019-04-20T02:08:08.722Z,101554.63
2019-04-20T02:10:41.083Z,101558.27
2019-04-20T02:13:03.393Z,101561.08
2019-04-20T02:15:38.563Z,101556.52
2019-04-20T02:18:14.912Z,101557.11
2019-04-20T02:20:50.283Z,101556.63
2019-04-20T02:23:10.550Z,101565.52
2019-04-20T02:25:29.071Z,101559.67
2019-04-20T02:28:14.778Z,101561.77
2019-04-20T02:33:34.789Z,101561.76
2019-04-20T02:36:25.040Z,101558.87
2019-04-20T02:41:49.734Z,101557.30
2019-04-20T02:44:27.118Z,101565.57
2019-04-20T02:46:33.680Z,101561.13
2019-04-20T02:49:10.643Z,101561.16
2019-04-20T02:51:33.052Z,101565.50
2019-04-20T02:54:11.068Z,101564.92
2019-04-20T02:56:39.874Z,101562.74
2019-04-20T03:01:17.607Z,101566.11
2019-04-20T03:03:34.524Z,101563.62
2019-04-20T03:06:10.234Z,101558.28
2019-04-20T03:08:47.955Z,101560.16
2019-04-20T03:11:23.462Z,101567.05
2019-04-20T03:13:41.737Z,101557.75
2019-04-20T03:16:12.417Z,101559.34
2019-04-20T03:18:41.347Z,101561.14
2019-04-20T03:21:12.729Z,101561.09
2019-04-20T03:23:57.279Z,101561.41
2019-04-20T03:26:17.600Z,101560.32
2019-04-20T03:28:51.464Z,101561.33
2019-04-20T03:31:46.447Z,101562.34
2019-04-20T03:34:23.182Z,101565.23
2019-04-20T03:36:46.931Z,101564.06
2019-04-20T03:38:53.857Z,101562.58
2019-04-20T03:41:16.568Z,101560.61
2019-04-20T03:43:32.865Z,101562.45
2019-04-20T03:46:07.376Z,101557.59
2019-04-20T03:48:46.853Z,101558.48
2019-04-20T03:51:23.617Z,101565.22
2019-04-20T03:54:04.689Z,101564.56
2019-04-20T03:56:47.979Z,101563.62
2019-04-20T03:59:33.245Z,101558.49
2019-04-20T04:02:22.249Z,101561.36
2019-04-20T04:04:54.499Z,101554.28
2019-04-20T04:07:15.338Z,101556.93
2019-04-20T04:09:46.704Z,101558.80
2019-04-20T04:12:16.875Z,101555.06
2019-04-20T04:14:34.529Z,101557.05
2019-04-20T04:17:04.212Z,101556.42
2019-04-20T04:19:36.578Z,101563.05
2019-04-20T04:22:15.120Z,101559.07
2019-04-20T04:24:40.977Z,101556.81
2019-04-20T04:27:15.035Z,101558.80
2019-04-20T04:29:48.603Z,101566.63
2019-04-20T04:32:35.059Z,101566.23
2019-04-20T04:34:43.318Z,101569.63
2019-04-20T04:37:17.987Z,101565.19
2019-04-20T04:39:49.068Z,101571.61
2019-04-20T04:42:39.235Z,101567.17
2019-04-20T04:44:37.487Z,101565.80
2019-04-20T04:47:00.225Z,101567.75
2019-04-20T04:49:31.138Z,101563.42
2019-04-20T04:52:02.284Z,101568.17
2019-04-20T04:54:33.825Z,101574.20
2019-04-20T04:56:52.649Z,101576.86
2019-04-20T04:59:21.399Z,101575.22
2019-04-20T05:01:53.115Z,101577.16
2019-04-20T05:04:41.512Z,101584.81
2019-04-20T05:07:05.134Z,101577.88
2019-04-20T05:09:20.453Z,101576.88
2019-04-20T05:11:55.868Z,101584.86
2019-04-20T05:14:24.516Z,101579.22
2019-04-20T05:17:04.189Z,101586.79
2019-04-20T05:19:36.812Z,101580.67
2019-04-20T05:22:13.790Z,101580.25
2019-04-20T05:24:48.214Z,101579.70
2019-04-20T05:27:24.906Z,101587.61
2019-04-20T05:29:38.153Z,101581.12
2019-04-20T05:32:11.182Z,101585.96
2019-04-20T05:34:58.206Z,101579.64
2019-04-20T05:37:37.165Z,101578.66
2019-04-20T05:39:59.011Z,101568.63
2019-04-20T05:42:29.999Z,101575.67
2019-04-20T05:44:55.953Z,101574.91
2019-04-20T05:47:24.074Z,101574.48
2019-04-20T05:49:49.901Z,101572.94
2019-04-20T05:52:35.034Z,101573.47
2019-04-20T05:54:51.411Z,101565.33
2019-04-20T05:57:25.143Z,101565.58
2019-04-20T06:00:00.011Z,101565.59
2019-04-20T06:02:25.061Z,101568.57
2019-04-20T06:05:00.470Z,101565.66
2019-04-20T06:07:21.180Z,101576.11
2019-04-20T06:09:46.344Z,101571.74
2019-04-20T06:15:00.351Z,101570.64
2019-04-20T06:17:53.203Z,101571.42
2019-04-20T06:20:27.218Z,101577.65
2019-04-20T06:22:57.419Z,101573.86
2019-04-20T06:27:56.880Z,101575.53
2019-04-20T06:30:18.901Z,101572.41
2019-04-20T06:33:06.851Z,101574.12
2019-04-20T06:35:46.581Z,101568.73
2019-04-20T06:38:00.767Z,101573.09
2019-04-20T06:40:42.275Z,101574.69
2019-04-20T06:42:58.852Z,101569.09
2019-04-20T06:45:28.189Z,101572.43
2019-04-20T06:47:54.597Z,101580.23
2019-04-20T06:50:18.203Z,101581.94
2019-04-20T06:52:55.650Z,101577.91
2019-04-20T06:55:19.794Z,101576.61
2019-04-20T06:57:57.274Z,101582.77
2019-04-20T07:00:18.152Z,101578.94
2019-04-20T07:02:53.897Z,101576.27
2019-04-20T07:07:53.376Z,101576.25
2019-04-20T07:10:37.388Z,101578.61
2019-04-20T07:12:46.638Z,101579.90
2019-04-20T07:15:19.851Z,101573.61
2019-04-20T07:18:02.357Z,101560.97
2019-04-20T07:20:27.851Z,101569.55
2019-04-20T07:23:11.562Z,101568.50
2019-04-20T07:25:34.144Z,101569.44
2019-04-20T07:27:58.254Z,101566.90
2019-04-20T07:30:30.326Z,101572.52
2019-04-20T07:33:04.545Z,101570.72
2019-04-20T07:35:26.306Z,101569.50
2019-04-20T07:40:24.481Z,101564.97
2019-04-20T07:42:56.479Z,101567.45
2019-04-20T07:47:52.733Z,101563.45
2019-04-20T07:50:18.883Z,101557.03
2019-04-20T07:52:43.863Z,101561.12
2019-04-20T07:57:46.914Z,101557.41
2019-04-20T08:00:26.249Z,101557.55
2019-04-20T08:02:57.362Z,101550.79
2019-04-20T08:05:30.493Z,101550.42
2019-04-20T08:07:53.850Z,101550.78
2019-04-20T08:10:30.680Z,101547.28
2019-04-20T08:13:09.515Z,101538.52
2019-04-20T08:15:46.186Z,101538.52
2019-04-20T08:18:01.259Z,101542.80
2019-04-20T08:20:35.515Z,101542.80
2019-04-20T08:23:06.408Z,101544.63
2019-04-20T08:25:23.524Z,101538.41
2019-04-20T08:27:46.599Z,101539.29
2019-04-20T08:30:33.878Z,101539.44
2019-04-20T08:33:09.541Z,101533.83
2019-04-20T08:35:47.710Z,101530.50
2019-04-20T08:38:37.278Z,101532.03
2019-04-20T08:40:43.717Z,101524.42
2019-04-20T08:43:20.116Z,101521.80
2019-04-20T08:45:42.041Z,101518.25
2019-04-20T08:48:17.412Z,101520.40
2019-04-20T08:50:37.414Z,101520.12
2019-04-20T08:53:20.491Z,101518.67
2019-04-20T08:55:33.537Z,101509.23
2019-04-20T08:57:49.269Z,101509.52
2019-04-20T09:00:28.861Z,101507.72
2019-04-20T09:02:51.681Z,101500.97
2019-04-20T09:05:30.269Z,101499.62
2019-04-20T09:07:57.761Z,101500.39
2019-04-20T09:10:39.439Z,101490.89
2019-04-20T09:13:01.526Z,101494.75
2019-04-20T09:15:14.774Z,101496.06
2019-04-20T09:17:54.805Z,101493.44
2019-04-20T09:20:33.065Z,101492.02
2019-04-20T09:23:07.055Z,101487.89
2019-04-20T09:28:09.483Z,101481.77
2019-04-20T09:30:37.062Z,101480.50
2019-04-20T09:33:16.820Z,101481.79
2019-04-20T09:35:44.044Z,101470.19
2019-04-20T09:38:14.417Z,101478.39
2019-04-20T09:40:48.267Z,101473.20
2019-04-20T09:43:06.659Z,101464.83
2019-04-20T09:45:49.003Z,101468.64
2019-04-20T09:48:21.223Z,101459.30
2019-04-20T09:51:05.013Z,101465.46
2019-04-20T09:53:24.730Z,101460.05
2019-04-20T09:56:04.713Z,101462.83
2019-04-20T09:58:24.030Z,101457.34
2019-04-20T10:00:56.805Z,101461.44
2019-04-20T10:03:10.908Z,101458.82
2019-04-20T10:05:38.566Z,101457.52
2019-04-20T10:08:09.549Z,101457.05
2019-04-20T10:10:40.577Z,101456.53
2019-04-20T10:13:05.995Z,101451.36
2019-04-20T10:15:35.390Z,101453.56
2019-04-20T10:18:03.748Z,101443.84
2019-04-20T10:20:34.753Z,101441.21
2019-04-20T10:23:00.912Z,101437.11
2019-04-20T10:25:28.772Z,101445.14
2019-04-20T10:27:57.589Z,101439.45
2019-04-20T10:30:26.307Z,101435.53
2019-04-20T10:32:55.722Z,101431.94
2019-04-20T10:35:23.544Z,101429.27
2019-04-20T10:37:55.730Z,101424.96
2019-04-20T10:40:37.799Z,101424.53
2019-04-20T10:42:53.154Z,101428.94
2019-04-20T10:45:21.280Z,101425.42
2019-04-20T10:47:49.082Z,101425.44
2019-04-20T10:50:16.899Z,101416.65
2019-04-20T10:52:45.810Z,101415.31
2019-04-20T10:55:14.729Z,101417.08
2019-04-20T10:57:43.812Z,101414.34
2019-04-20T11:00:13.422Z,101416.51
2019-04-20T11:02:43.959Z,101414.34
2019-04-20T11:05:10.837Z,101406.49
2019-04-20T11:07:38.832Z,101402.46
2019-04-20T11:10:14.729Z,101400.23
2019-04-20T11:12:35.941Z,101405.02
2019-04-20T11:15:03.637Z,101400.09
2019-04-20T11:17:31.813Z,101402.25
2019-04-20T11:20:01.197Z,101397.07
2019-04-20T11:22:30.291Z,101397.84
2019-04-20T11:24:58.569Z,101393.74
2019-04-20T11:27:26.416Z,101386.66
2019-04-20T11:29:54.138Z,101383.20
2019-04-20T11:32:22.204Z,101385.86
2019-04-20T11:34:51.175Z,101382.33
2019-04-20T11:37:19.357Z,101377.08
2019-04-20T11:39:47.350Z,101370.05
2019-04-20T11:42:15.204Z,101377.11
2019-04-20T11:44:42.865Z,101369.59
2019-04-20T11:47:10.717Z,101371.36
2019-04-20T11:49:39.657Z,101365.99
2019-04-20T11:52:07.775Z,101366.33
2019-04-20T11:54:36.610Z,101363.72
2019-04-20T11:57:04.600Z,101363.20
2019-04-20T11:59:32.775Z,101357.45
2019-04-20T12:02:10.827Z,101359.78
2019-04-20T12:04:49.967Z,101350.64
2019-04-20T12:07:12.922Z,101340.88
2019-04-20T12:09:41.874Z,101346.20
2019-04-20T12:12:23.484Z,101342.78
2019-04-20T12:14:39.041Z,101339.27
2019-04-20T12:17:07.939Z,101333.47
2019-04-20T12:19:36.282Z,101336.95
2019-04-20T12:22:05.655Z,101333.52
2019-04-20T12:24:33.434Z,101330.37
2019-04-20T12:27:01.126Z,101341.84
2019-04-20T12:29:29.937Z,101324.28
2019-04-20T12:32:01.282Z,101324.20
2019-04-20T12:34:28.573Z,101333.44
2019-04-20T12:36:58.282Z,101323.38
2019-04-20T12:39:26.981Z,101327.33
2019-04-20T12:41:58.836Z,101322.05
2019-04-20T12:44:24.147Z,101317.63
2019-04-20T12:46:52.088Z,101319.78
2019-04-20T12:49:19.951Z,101322.02
2019-04-20T12:51:53.742Z,101315.00
2019-04-20T12:54:18.499Z,101313.66
2019-04-20T12:56:46.607Z,101311.50
2019-04-20T12:59:15.714Z,101300.06
2019-04-20T13:01:43.793Z,101307.98
2019-04-20T13:04:12.139Z,101302.80
2019-04-20T13:06:40.878Z,101305.86
2019-04-20T13:09:10.656Z,101297.53
2019-04-20T13:11:50.384Z,101293.55
2019-04-20T13:14:26.247Z,101295.28
2019-04-20T13:16:55.144Z,101285.66
2019-04-20T13:19:23.536Z,101293.48
2019-04-20T13:21:52.668Z,101287.79
2019-04-20T13:24:20.929Z,101283.44
2019-04-20T13:26:49.100Z,101288.20
2019-04-20T13:29:17.123Z,101283.36
2019-04-20T13:31:44.931Z,101275.09
2019-04-20T13:34:13.282Z,101271.08
2019-04-20T13:36:42.098Z,101276.81
2019-04-20T13:39:10.232Z,101270.25
2019-04-20T13:41:38.186Z,101260.17
2019-04-20T13:44:06.573Z,101266.72
2019-04-20T13:46:34.362Z,101271.13
2019-04-20T13:49:03.017Z,101260.60
2019-04-20T13:51:31.003Z,101259.73
2019-04-20T13:53:59.440Z,101247.52
2019-04-20T13:56:28.004Z,101242.66
2019-04-20T13:59:02.146Z,101244.77
2019-04-20T14:01:51.609Z,101241.69
2019-04-20T14:04:24.464Z,101243.87
2019-04-20T14:06:53.357Z,101227.69
2019-04-20T14:09:21.406Z,101223.28
2019-04-20T14:11:49.451Z,101225.91
2019-04-20T14:14:17.348Z,101226.33
2019-04-20T14:16:45.419Z,101221.95
2019-04-20T14:19:14.379Z,101222.81
2019-04-20T14:21:42.189Z,101217.09
2019-04-20T14:24:10.971Z,101213.62
2019-04-20T14:26:40.748Z,101213.61
2019-04-20T14:29:09.038Z,101209.70
2019-04-20T14:31:37.598Z,101208.84
2019-04-20T14:34:06.768Z,101208.39
2019-04-20T14:36:34.914Z,101210.62
2019-04-20T14:39:04.422Z,101201.84
2019-04-20T14:41:32.411Z,101204.03
2019-04-20T14:44:01.562Z,101199.20
2019-04-20T14:46:29.546Z,101199.63
2019-04-20T14:48:58.759Z,101189.52
2019-04-20T14:51:27.761Z,101194.34
2019-04-20T14:53:55.810Z,101183.83
2019-04-20T14:56:23.582Z,101196.05
2019-04-20T14:58:55.765Z,101181.98
2019-04-20T15:01:42.833Z,101181.09
2019-04-20T15:04:16.664Z,101182.80
2019-04-20T15:06:40.103Z,101174.50
2019-04-20T15:09:08.725Z,101180.15
2019-04-20T15:11:39.869Z,101176.67
2019-04-20T15:14:06.860Z,101176.67
2019-04-20T15:16:34.837Z,101165.39
2019-04-20T15:19:07.715Z,101165.80
2019-04-20T15:21:35.702Z,101169.73
2019-04-20T15:24:03.767Z,101159.66
2019-04-20T15:26:31.506Z,101157.05
2019-04-20T15:28:59.973Z,101151.80
2019-04-20T15:31:28.190Z,101152.23
2019-04-20T15:33:57.064Z,101153.50
2019-04-20T15:36:24.802Z,101144.73
2019-04-20T15:38:53.340Z,101151.25
2019-04-20T15:41:21.317Z,101142.09
2019-04-20T15:43:49.174Z,101147.80
2019-04-20T15:46:17.215Z,101136.44
2019-04-20T15:48:46.156Z,101141.71
2019-04-20T15:51:14.167Z,101137.28
2019-04-20T15:53:42.016Z,101137.31
2019-04-20T15:56:11.672Z,101140.80
2019-04-20T15:58:39.041Z,101133.83
2019-04-20T16:01:08.294Z,101125.05
2019-04-20T16:03:41.562Z,101120.22
2019-04-20T16:06:11.354Z,101120.67
2019-04-20T16:08:41.940Z,101115.42
2019-04-20T16:11:11.220Z,101114.95
2019-04-20T16:13:44.138Z,101116.24
2019-04-20T16:16:09.966Z,101116.27
2019-04-20T16:18:39.151Z,101115.83
2019-04-20T16:21:13.303Z,101108.81
2019-04-20T16:23:43.927Z,101109.25
2019-04-20T16:26:17.709Z,101109.73
2019-04-20T16:28:45.869Z,101113.27
2019-04-20T16:31:15.415Z,101110.61
2019-04-20T16:33:44.293Z,101108.84
2019-04-20T16:36:12.374Z,101110.12
2019-04-20T16:38:41.465Z,101103.14
2019-04-20T16:41:10.434Z,101107.10
2019-04-20T16:43:43.013Z,101107.55
2019-04-20T16:46:08.749Z,101103.59
2019-04-20T16:48:37.930Z,101103.16
2019-04-20T16:51:06.925Z,101100.07
2019-04-20T16:53:34.971Z,101097.90
2019-04-20T16:56:02.876Z,101093.52
2019-04-20T16:58:31.837Z,101087.83
2019-04-20T17:00:59.501Z,101085.63
2019-04-20T17:03:39.007Z,101083.02
2019-04-20T17:05:56.529Z,101087.80
2019-04-20T17:08:24.979Z,101082.98
2019-04-20T17:10:53.674Z,101083.88
2019-04-20T17:13:34.158Z,101081.23
2019-04-20T17:15:51.969Z,101081.20
2019-04-20T17:18:19.736Z,101082.09
2019-04-20T17:20:48.373Z,101075.92
2019-04-20T17:23:17.539Z,101077.70
2019-04-20T17:25:46.021Z,101078.53
2019-04-20T17:28:27.258Z,101078.12
2019-04-20T17:31:03.703Z,101081.55
2019-04-20T17:33:50.763Z,101085.06
2019-04-20T17:36:15.658Z,101086.39
2019-04-20T17:38:43.427Z,101085.50
2019-04-20T17:41:22.477Z,101084.06
2019-04-20T17:43:57.794Z,101087.56
2019-04-20T17:46:17.359Z,101085.38
2019-04-20T17:48:45.124Z,101091.44
2019-04-20T17:51:24.001Z,101088.75
2019-04-20T17:53:58.557Z,101089.62
2019-04-20T17:56:24.459Z,101092.45
2019-04-20T17:58:52.399Z,101091.97
2019-04-20T18:01:47.826Z,101094.36
2019-04-20T18:04:37.014Z,101095.86
2019-04-20T18:06:47.841Z,101093.55
2019-04-20T18:09:24.935Z,101091.42
2019-04-20T18:11:40.307Z,101095.13
2019-04-20T18:14:17.155Z,101093.42
2019-04-20T18:16:51.069Z,101092.71
2019-04-20T18:19:13.906Z,101091.37
2019-04-20T18:21:43.415Z,101091.76
2019-04-20T18:24:16.541Z,101096.73
2019-04-20T18:26:59.163Z,101099.69
2019-04-20T18:29:32.289Z,101101.03
2019-04-20T18:31:45.334Z,101103.15
2019-04-20T18:34:22.708Z,101103.00
2019-04-20T18:36:49.450Z,101102.96
2019-04-20T18:39:22.150Z,101107.06
2019-04-20T18:41:52.161Z,101108.75
2019-04-20T18:44:20.200Z,101106.67
2019-04-20T18:47:09.525Z,101103.98
2019-04-20T18:49:26.924Z,101105.46
2019-04-20T18:51:44.288Z,101114.59
2019-04-20T18:54:19.461Z,101110.98
2019-04-20T18:56:45.940Z,101113.16
2019-04-20T18:59:11.438Z,101116.96
2019-04-20T19:01:42.006Z,101110.14
2019-04-20T19:04:09.868Z,101114.05
2019-04-20T19:06:38.104Z,101122.75
2019-04-20T19:09:10.088Z,101118.95
2019-04-20T19:11:43.746Z,101120.56
2019-04-20T19:14:17.263Z,101120.99
2019-04-20T19:16:59.765Z,101121.01
2019-04-20T19:19:33.370Z,101113.72
2019-04-20T19:21:54.152Z,101119.58
2019-04-20T19:24:26.000Z,101118.61
2019-04-20T19:26:56.121Z,101116.00
2019-04-20T19:29:30.068Z,101126.33
2019-04-20T19:32:15.820Z,101123.50
2019-04-20T19:34:37.747Z,101128.95
2019-04-20T19:37:02.223Z,101121.90
2019-04-20T19:39:32.270Z,101125.73
2019-04-20T19:41:55.514Z,101116.89
2019-04-20T19:44:28.742Z,101119.45
2019-04-20T19:47:09.119Z,101113.24
2019-04-20T19:49:25.077Z,101115.17
2019-04-20T19:52:20.215Z,101112.45
2019-04-20T19:54:36.855Z,101111.48
2019-04-20T19:56:58.707Z,101113.38
2019-04-20T19:59:24.860Z,101111.30
2019-04-20T20:01:42.837Z,101112.53
2019-04-20T20:04:11.852Z,101107.87
2019-04-20T20:06:47.172Z,101112.38
2019-04-20T20:09:12.615Z,101106.62
2019-04-20T20:11:42.314Z,101099.93
2019-04-20T20:14:11.128Z,101102.22
2019-04-20T20:16:56.502Z,101101.94
2019-04-20T20:19:16.778Z,101103.83
2019-04-20T20:21:54.296Z,101107.55
2019-04-20T20:24:06.085Z,101109.48
2019-04-20T20:26:40.712Z,101112.18
2019-04-20T20:29:12.131Z,101107.99
2019-04-20T20:31:48.459Z,101109.15
2019-04-20T20:34:15.788Z,101112.58
2019-04-20T20:36:43.652Z,101110.57
2019-04-20T20:39:10.756Z,101112.45
2019-04-20T20:41:47.799Z,101106.45
2019-04-20T20:44:06.955Z,101113.42
2019-04-20T20:46:36.521Z,101112.98
2019-04-20T20:49:28.861Z,101113.61
2019-04-20T20:51:52.803Z,101117.09
2019-04-20T20:54:07.671Z,101112.22
2019-04-20T20:56:30.878Z,101117.81
2019-04-20T20:59:04.139Z,101116.42
2019-04-20T21:01:37.795Z,101115.55
2019-04-20T21:03:56.735Z,101125.03
2019-04-20T21:06:24.554Z,101121.08
2019-04-20T21:08:56.069Z,101120.09
2019-04-20T21:11:27.138Z,101117.47
2019-04-20T21:13:52.263Z,101117.02
2019-04-20T21:16:25.700Z,101130.80
2019-04-20T21:19:05.956Z,101128.50
2019-04-20T21:21:34.919Z,101127.05
2019-04-20T21:23:58.157Z,101123.12
2019-04-20T21:26:27.085Z,101130.08
2019-04-20T21:28:50.086Z,101127.66
2019-04-20T21:31:22.377Z,101122.89
2019-04-20T21:33:47.232Z,101130.47
2019-04-20T21:36:21.187Z,101127.92
2019-04-20T21:38:45.120Z,101130.92
2019-04-20T21:41:16.217Z,101134.09
2019-04-20T21:43:44.635Z,101124.66
2019-04-20T21:46:13.866Z,101136.58
2019-04-20T21:48:55.926Z,101121.44
2019-04-20T21:51:27.444Z,101129.54
2019-04-20T21:53:41.181Z,101136.65
2019-04-20T21:56:10.211Z,101138.33
2019-04-20T21:58:43.548Z,101137.14
2019-04-20T22:01:20.116Z,101137.58
2019-04-20T22:03:38.306Z,101142.89
2019-04-20T22:06:06.769Z,101137.06
2019-04-20T22:08:34.765Z,101137.77
2019-04-20T22:11:03.860Z,101139.91
2019-04-20T22:13:37.697Z,101146.06
2019-04-20T22:16:05.433Z,101147.91
2019-04-20T22:18:31.916Z,101142.66
2019-04-20T22:21:11.182Z,101145.05
2019-04-20T22:23:46.438Z,101147.55
2019-04-20T22:26:16.331Z,101140.46
2019-04-20T22:28:28.160Z,101144.17
2019-04-20T22:30:55.863Z,101143.79
2019-04-20T22:33:33.602Z,101153.69
2019-04-20T22:36:02.181Z,101144.40
2019-04-20T22:38:33.055Z,101144.38
2019-04-20T22:41:07.772Z,101138.02
2019-04-20T22:43:33.915Z,101140.81
2019-04-20T22:45:59.648Z,101139.88
2019-04-20T22:48:27.287Z,101139.58
2019-04-20T22:51:17.909Z,101136.95
2019-04-20T22:53:36.445Z,101137.17
2019-04-20T22:56:14.771Z,101144.95
2019-04-20T22:58:38.793Z,101140.77
2019-04-20T23:00:57.859Z,101132.52
2019-04-20T23:03:22.951Z,101135.36
2019-04-20T23:05:50.995Z,101125.95
2019-04-20T23:08:20.369Z,101123.88
2019-04-20T23:10:49.701Z,101117.98
2019-04-20T23:13:22.080Z,101120.34
2019-04-20T23:15:54.070Z,101115.66
2019-04-20T23:18:16.277Z,101119.55
2019-04-20T23:20:44.269Z,101110.53
2019-04-20T23:23:16.963Z,101117.48
2019-04-20T23:25:41.362Z,101110.17
2019-04-20T23:28:12.338Z,101114.09
2019-04-20T23:30:40.619Z,101105.36
2019-04-20T23:33:07.894Z,101113.73
2019-04-20T23:35:37.535Z,101108.39
2019-04-20T23:38:11.083Z,101109.62
2019-04-20T23:40:34.262Z,101107.78
2019-04-20T23:43:17.801Z,101103.78
2019-04-20T23:45:49.858Z,101102.12
2019-04-20T23:48:28.478Z,101094.98
2019-04-20T23:51:08.439Z,101097.16
2019-04-20T23:53:39.285Z,101101.66
2019-04-20T23:55:52.075Z,101095.33
2019-04-20T23:58:21.052Z,101096.20
